createdAt,value
2023-05-18T00:02:40.021Z,8.94
2023-05-18T00:07:08.980Z,8.79
2023-05-18T00:28:35.781Z,8.17
2023-05-18T00:33:05.081Z,8.03
2023-05-18T00:41:30.285Z,7.88
2023-05-18T00:45:59.040Z,7.74
2023-05-18T01:03:25.091Z,7.40
2023-05-18T01:07:54.781Z,7.30
2023-05-18T01:27:11.667Z,6.99
2023-05-18T01:31:40.456Z,6.90
2023-05-18T01:49:04.126Z,6.61
2023-05-18T01:53:35.762Z,6.54
2023-05-18T02:10:55.414Z,6.29
2023-05-18T02:15:24.127Z,6.23
2023-05-18T02:19:55.845Z,6.22
2023-05-18T02:37:21.387Z,6.13
2023-05-18T02:41:50.338Z,6.01
2023-05-18T02:59:10.681Z,5.77
2023-05-18T03:03:39.479Z,5.65
2023-05-18T03:29:37.627Z,5.51
2023-05-18T03:34:06.332Z,5.70
2023-05-18T03:38:35.003Z,6.50
2023-05-18T03:43:04.662Z,7.61
2023-05-18T03:47:35.248Z,8.03
2023-05-18T03:56:00.040Z,8.55
2023-05-18T04:00:29.463Z,8.73
2023-05-18T04:04:38.384Z,8.94
2023-05-18T04:09:08.012Z,9.21
2023-05-18T04:13:39.478Z,9.51
2023-05-18T04:35:26.341Z,10.70
2023-05-18T04:39:56.016Z,10.75
2023-05-18T05:04:00.789Z,12.07
2023-05-18T05:08:30.164Z,12.31
2023-05-18T05:12:58.876Z,12.51
2023-05-18T05:34:46.024Z,12.54
2023-05-18T05:39:15.867Z,12.68
2023-05-18T05:56:29.997Z,13.10
2023-05-18T05:59:58.520Z,13.33
2023-05-18T06:02:55.017Z,13.41
2023-05-18T06:05:45.703Z,13.40
2023-05-18T06:09:15.390Z,13.38
2023-05-18T06:13:45.313Z,13.50
2023-05-18T06:17:04.110Z,13.59
2023-05-18T06:19:54.086Z,13.50
2023-05-18T06:23:05.348Z,13.48
2023-05-18T06:26:12.956Z,13.61
2023-05-18T06:29:19.449Z,13.89
2023-05-18T06:32:49.585Z,14.06
2023-05-18T06:42:36.599Z,14.75
2023-05-18T06:45:47.761Z,15.01
2023-05-18T06:49:18.495Z,15.09
2023-05-18T06:53:45.777Z,15.31
2023-05-18T06:57:21.620Z,15.63
2023-05-18T07:00:46.092Z,15.84
2023-05-18T07:35:49.122Z,16.48
2023-05-18T07:39:53.139Z,16.60
2023-05-18T07:43:37.233Z,16.49
2023-05-18T07:48:03.662Z,16.67
2023-05-18T07:52:01.744Z,17.16
2023-05-18T08:17:14.919Z,16.14
2023-05-18T08:21:32.964Z,15.90
2023-05-18T08:26:02.215Z,15.61
2023-05-18T08:30:24.912Z,15.55
2023-05-18T08:34:25.771Z,15.54
2023-05-18T08:38:36.839Z,15.30
2023-05-18T08:42:49.984Z,15.15
2023-05-18T08:47:24.032Z,15.44
2023-05-18T08:51:35.625Z,16.10
2023-05-18T08:56:08.092Z,16.34
2023-05-18T09:00:02.507Z,16.46
2023-05-18T09:04:31.658Z,16.59
2023-05-18T09:09:01.163Z,16.90
2023-05-18T09:12:43.255Z,16.81
2023-05-18T09:37:52.736Z,16.76
2023-05-18T09:40:33.941Z,17.10
2023-05-18T09:43:28.659Z,17.39
2023-05-18T09:46:23.009Z,17.71
2023-05-18T09:49:24.961Z,18.03
2023-05-18T09:53:08.896Z,18.44
2023-05-18T09:56:37.144Z,18.77
2023-05-18T10:00:39.125Z,19.04
2023-05-18T10:04:04.243Z,19.06
2023-05-18T10:06:49.966Z,19.16
2023-05-18T10:09:53.340Z,19.35
2023-05-18T10:12:53.523Z,19.45
2023-05-18T10:15:59.939Z,19.72
2023-05-18T10:20:20.965Z,20.12
2023-05-18T10:23:11.978Z,20.34
2023-05-18T10:26:06.473Z,20.37
2023-05-18T10:28:48.309Z,20.46
2023-05-18T10:31:46.087Z,20.47
2023-05-18T10:34:29.404Z,20.40
2023-05-18T10:37:43.099Z,20.41
2023-05-18T10:40:39.353Z,20.15
2023-05-18T10:43:32.926Z,20.08
2023-05-18T10:46:25.972Z,20.25
2023-05-18T10:50:05.223Z,20.50
2023-05-18T10:53:33.474Z,20.56
2023-05-18T10:56:45.523Z,20.50
2023-05-18T10:59:26.259Z,20.64
2023-05-18T11:02:08.561Z,20.66
2023-05-18T11:05:36.867Z,20.47
2023-05-18T11:08:29.407Z,20.07
2023-05-18T11:12:02.289Z,20.24
2023-05-18T11:15:17.700Z,20.37
2023-05-18T11:19:29.574Z,20.65
2023-05-18T11:23:41.783Z,20.91
2023-05-18T11:26:55.375Z,21.20
2023-05-18T11:30:35.943Z,21.47
2023-05-18T11:33:38.711Z,21.67
2023-05-18T11:37:01.674Z,21.75
2023-05-18T11:41:03.852Z,21.48
2023-05-18T11:44:55.924Z,21.35
2023-05-18T11:47:57.588Z,21.15
2023-05-18T11:50:50.217Z,21.30
2023-05-18T11:53:45.760Z,21.33
2023-05-18T11:57:36.894Z,21.31
2023-05-18T12:00:50.672Z,21.55
2023-05-18T12:03:28.021Z,21.60
2023-05-18T12:06:22.606Z,21.72
2023-05-18T12:09:07.957Z,21.72
2023-05-18T12:12:24.183Z,21.79
2023-05-18T12:15:06.444Z,21.99
2023-05-18T12:18:38.600Z,22.18
2023-05-18T12:26:57.342Z,22.23
2023-05-18T12:31:12.297Z,21.93
2023-05-18T12:35:14.398Z,21.11
2023-05-18T12:39:35.403Z,21.04
2023-05-18T13:01:29.049Z,21.69
2023-05-18T13:06:11.652Z,22.30
2023-05-18T13:10:44.684Z,22.17
2023-05-18T13:32:28.011Z,22.20
2023-05-18T13:36:58.353Z,20.95
2023-05-18T13:58:28.330Z,20.93
2023-05-18T14:02:57.754Z,21.65
2023-05-18T14:21:06.392Z,21.89
2023-05-18T14:25:35.585Z,21.00
2023-05-18T14:30:04.595Z,20.40
2023-05-18T14:38:29.853Z,20.83
2023-05-18T14:43:00.123Z,21.46
2023-05-18T15:09:15.221Z,19.98
2023-05-18T15:13:45.797Z,19.56
2023-05-18T15:31:06.182Z,20.47
2023-05-18T15:35:38.919Z,20.59
2023-05-18T15:43:43.880Z,20.62
2023-05-18T15:48:13.129Z,20.43
2023-05-18T15:52:34.860Z,19.88
2023-05-18T15:57:05.279Z,19.72
2023-05-18T16:15:26.460Z,19.03
2023-05-18T16:36:56.242Z,18.14
2023-05-18T16:41:25.818Z,17.83
2023-05-18T16:46:00.088Z,17.53
2023-05-18T17:03:20.278Z,16.89
2023-05-18T17:07:50.542Z,16.59
2023-05-18T17:29:30.667Z,15.35
2023-05-18T17:51:18.976Z,14.40
2023-05-18T17:55:47.829Z,14.24
2023-05-18T18:17:35.222Z,13.51
2023-05-18T18:22:04.693Z,13.32
2023-05-18T18:26:34.768Z,13.12
2023-05-18T18:44:14.537Z,12.50
2023-05-18T18:48:43.901Z,12.35
2023-05-18T18:53:13.157Z,12.16
2023-05-18T18:57:42.489Z,11.99
2023-05-18T19:06:14.721Z,11.80
2023-05-18T19:10:44.477Z,11.65
2023-05-18T19:28:05.194Z,11.25
2023-05-18T19:32:34.360Z,11.11
2023-05-18T19:37:04.897Z,10.95
2023-05-18T19:58:42.694Z,10.42
2023-05-18T20:03:12.332Z,10.37
2023-05-18T20:07:30.165Z,10.29
2023-05-18T20:15:58.036Z,10.17
2023-05-18T20:20:29.235Z,10.07
2023-05-18T20:24:59.510Z,10.06
2023-05-18T20:46:47.029Z,9.81
2023-05-18T20:51:15.915Z,9.69
2023-05-18T21:08:25.717Z,9.30
2023-05-18T21:12:55.080Z,9.20
2023-05-18T21:34:43.748Z,8.80
2023-05-18T21:39:13.283Z,8.72
2023-05-18T22:00:01.576Z,8.56
2023-05-18T22:04:31.113Z,8.46
2023-05-18T22:09:00.190Z,8.32
2023-05-18T22:26:19.882Z,8.02
2023-05-18T22:30:48.906Z,7.99
2023-05-18T22:56:54.488Z,7.62
2023-05-18T23:01:24.617Z,7.56
2023-05-18T23:22:49.295Z,7.30
2023-05-18T23:27:18.687Z,7.23
2023-05-18T23:31:47.500Z,7.13
2023-05-18T23:54:38.597Z,6.83
2023-05-18T23:58:56.372Z,6.77
